Time;durP1;ratioP1;P1;durP2;ratioP2;P2;SDS_P1;SDS_P2;PMS_P1;PMS_P2;Temp;Humidity;BMP_temperature;BMP_pressure;BME280_temperature;BME280_humidity;BME280_pressure;Samples;Min_cycle;Max_cycle;Signal;HPM_P1;HPM_P2
2021/12/15 00:00:50;;;;;;;116.30;24.30;;;5.90;99.90;;;;;;4991675;28;20073;-47
2021/12/15 00:03:16;;;;;;;122.68;23.23;;;6.00;99.90;;;;;;4991648;28;20070;-51
2021/12/15 00:05:45;;;;;;;55.95;22.33;;;5.90;99.90;;;;;;4992131;28;20556;-47
2021/12/15 00:08:11;;;;;;;81.40;23.73;;;6.00;99.90;;;;;;4992266;28;20173;-49
2021/12/15 00:10:38;;;;;;;74.70;23.63;;;6.00;99.90;;;;;;4991590;28;20052;-49
2021/12/15 00:13:04;;;;;;;81.60;24.42;;;6.00;99.90;;;;;;4991752;28;20018;-46
2021/12/15 00:15:30;;;;;;;88.72;25.15;;;6.00;99.90;;;;;;4991781;28;20033;-49
2021/12/15 00:17:57;;;;;;;94.97;24.50;;;6.20;99.90;;;;;;4991838;28;20172;-47
2021/12/15 00:20:24;;;;;;;48.35;23.73;;;6.20;99.90;;;;;;4991286;28;20106;-49
2021/12/15 00:22:52;;;;;;;56.63;23.05;;;6.30;99.90;;;;;;4991630;28;20027;-48
2021/12/15 00:25:20;;;;;;;46.42;24.95;;;6.30;99.90;;;;;;4991741;28;20022;-47
2021/12/15 00:27:46;;;;;;;102.22;26.90;;;6.30;99.90;;;;;;4991743;28;20030;-46
2021/12/15 00:30:12;;;;;;;81.47;23.70;;;6.30;99.90;;;;;;4991365;28;20489;-46
2021/12/15 00:32:38;;;;;;;92.10;24.88;;;6.40;99.90;;;;;;4991622;28;20061;-48
2021/12/15 00:35:06;;;;;;;41.08;21.17;;;6.50;99.90;;;;;;4991562;28;20073;-55
2021/12/15 00:37:31;;;;;;;77.38;24.67;;;6.50;99.90;;;;;;4991667;28;20373;-47
2021/12/15 00:39:57;;;;;;;86.97;24.00;;;6.50;99.90;;;;;;4991298;28;20027;-47
2021/12/15 00:42:23;;;;;;;162.18;24.88;;;6.40;99.90;;;;;;4991389;28;20498;-47
2021/12/15 00:44:48;;;;;;;56.13;24.08;;;6.30;99.90;;;;;;4992662;28;20034;-47
2021/12/15 00:47:14;;;;;;;121.50;25.05;;;6.30;99.90;;;;;;4995532;28;20057;-50
2021/12/15 00:49:40;;;;;;;75.13;25.05;;;6.30;99.90;;;;;;4994940;28;20030;-49
2021/12/15 00:52:07;;;;;;;105.32;27.20;;;6.30;99.90;;;;;;4995000;28;20038;-48
2021/12/15 00:54:34;;;;;;;74.00;25.90;;;6.30;99.90;;;;;;4995013;28;20027;-46
2021/12/15 00:57:00;;;;;;;94.35;24.95;;;6.30;99.90;;;;;;4994989;28;20027;-45
2021/12/15 00:59:26;;;;;;;176.55;28.10;;;6.30;99.90;;;;;;4993451;28;20027;-45
2021/12/15 01:01:53;;;;;;;125.78;26.40;;;6.40;99.90;;;;;;4994219;28;20410;-44
2021/12/15 01:04:21;;;;;;;55.08;25.20;;;6.40;99.90;;;;;;4993720;28;20117;-46
2021/12/15 01:06:52;;;;;;;53.25;25.02;;;6.40;99.90;;;;;;4994812;28;20390;-46
2021/12/15 01:09:40;;;;;;;52.28;24.98;;;6.30;99.90;;;;;;4994464;28;20153;-48
2021/12/15 01:12:14;;;;;;;126.30;27.40;;;6.40;99.90;;;;;;4994784;28;20108;-54
2021/12/15 01:20:23;;;;;;;63.83;24.88;;;6.60;99.90;;;;;;4994588;28;20077;-46
2021/12/15 01:22:52;;;;;;;104.93;24.90;;;6.50;99.90;;;;;;4994516;28;20323;-43
2021/12/15 01:25:27;;;;;;;66.80;23.25;;;6.50;99.90;;;;;;4994599;28;20034;-51
2021/12/15 01:27:52;;;;;;;70.50;21.75;;;6.50;99.90;;;;;;4994442;28;20106;-49
2021/12/15 01:30:22;;;;;;;42.65;22.48;;;6.50;99.90;;;;;;4994311;28;20118;-46
2021/12/15 01:32:49;;;;;;;85.95;22.52;;;6.50;99.90;;;;;;4993228;28;20025;-48
2021/12/15 01:35:16;;;;;;;49.78;22.90;;;6.40;99.90;;;;;;4994382;28;20023;-55
2021/12/15 01:37:42;;;;;;;52.67;22.85;;;6.40;99.90;;;;;;4994433;28;20026;-47
2021/12/15 01:40:17;;;;;;;65.22;25.02;;;6.20;99.90;;;;;;4994504;28;20065;-46
2021/12/15 01:42:43;;;;;;;101.40;26.23;;;6.40;99.90;;;;;;4994644;28;20038;-49
2021/12/15 01:48:13;;;;;;;41.20;24.20;;;6.50;99.90;;;;;;4998909;28;20034;-52
2021/12/15 01:50:39;;;;;;;61.70;25.98;;;6.50;99.90;;;;;;4997794;28;20026;-51
2021/12/15 01:53:06;;;;;;;73.95;26.65;;;6.50;99.90;;;;;;4994820;28;20048;-48
2021/12/15 01:55:32;;;;;;;76.05;26.95;;;6.50;99.90;;;;;;4994043;28;20053;-46
2021/12/15 01:57:58;;;;;;;109.50;27.55;;;6.50;99.90;;;;;;4993272;28;20054;-48
2021/12/15 02:00:30;;;;;;;66.40;25.40;;;6.60;99.90;;;;;;4993777;28;20394;-49
2021/12/15 02:02:57;;;;;;;80.32;25.88;;;6.50;99.90;;;;;;4994333;28;20070;-50
2021/12/15 02:05:25;;;;;;;75.15;24.75;;;6.40;99.90;;;;;;4994978;28;20490;-51
2021/12/15 02:07:52;;;;;;;72.35;24.75;;;6.30;99.90;;;;;;4995386;28;20125;-57
2021/12/15 02:10:20;;;;;;;95.40;25.42;;;6.30;99.90;;;;;;4994277;28;20057;-50
2021/12/15 02:12:46;;;;;;;95.97;26.48;;;6.30;99.90;;;;;;4994911;28;20033;-47
2021/12/15 02:15:21;;;;;;;64.25;25.13;;;6.30;99.90;;;;;;4993835;28;20026;-49
2021/12/15 02:17:47;;;;;;;71.30;23.92;;;6.30;99.90;;;;;;4993916;28;20113;-50
2021/12/15 02:20:16;;;;;;;55.33;23.52;;;6.30;99.90;;;;;;4993126;28;20098;-52
2021/12/15 02:22:44;;;;;;;58.97;23.13;;;6.40;99.90;;;;;;4993360;28;20042;-48
2021/12/15 02:25:13;;;;;;;91.38;24.95;;;6.40;99.90;;;;;;4993515;28;20030;-49
2021/12/15 02:27:39;;;;;;;72.93;23.63;;;6.40;99.90;;;;;;4993863;28;20019;-49
2021/12/15 02:33:13;;;;;;;50.20;23.10;;;6.40;99.90;;;;;;4993918;28;20518;-50
2021/12/15 02:38:35;;;;;;;47.00;24.52;;;6.30;99.90;;;;;;4993724;28;20057;-53
2021/12/15 02:41:09;;;;;;;72.90;24.63;;;6.20;99.90;;;;;;4992560;28;20402;-47
2021/12/15 02:43:35;;;;;;;49.00;23.38;;;6.20;99.90;;;;;;4992976;28;20113;-50
2021/12/15 02:46:01;;;;;;;97.65;24.30;;;6.10;99.90;;;;;;4993088;28;20027;-51
2021/12/15 02:48:27;;;;;;;90.70;24.10;;;6.10;99.90;;;;;;4993145;28;20026;-50
2021/12/15 02:50:52;;;;;;;58.30;25.98;;;6.10;99.90;;;;;;4993217;28;20375;-55
2021/12/15 02:53:18;;;;;;;64.30;25.83;;;6.20;99.90;;;;;;4992944;28;20438;-46
2021/12/15 02:55:44;;;;;;;67.63;24.42;;;6.20;99.90;;;;;;4992802;28;20018;-46
2021/12/15 02:58:10;;;;;;;71.95;25.77;;;6.20;99.90;;;;;;4993040;28;20034;-46
2021/12/15 03:00:48;;;;;;;55.13;25.30;;;6.30;99.90;;;;;;4992980;28;20033;-47
2021/12/15 03:06:08;;;;;;;53.42;25.15;;;6.40;99.90;;;;;;4992961;28;20113;-46
2021/12/15 03:16:55;;;;;;;78.10;25.20;;;6.30;99.90;;;;;;4992612;28;20053;-47
2021/12/15 03:19:21;;;;;;;74.03;26.98;;;6.30;99.90;;;;;;4992298;28;20105;-48
2021/12/15 03:21:46;;;;;;;72.55;24.90;;;6.30;99.90;;;;;;4992399;28;20128;-48
2021/12/15 03:24:18;;;;;;;91.70;26.05;;;6.20;99.90;;;;;;4992365;28;20038;-55
2021/12/15 03:27:01;;;;;;;59.05;26.33;;;6.20;99.90;;;;;;4992293;28;20471;-50
2021/12/15 03:35:16;;;;;;;113.53;26.75;;;6.10;99.90;;;;;;4993306;28;20042;-50
2021/12/15 03:37:48;;;;;;;77.53;25.35;;;6.20;99.90;;;;;;4993065;28;20027;-52
2021/12/15 03:40:19;;;;;;;61.80;24.55;;;6.10;99.90;;;;;;4992776;28;20030;-51
2021/12/15 03:42:47;;;;;;;93.88;27.35;;;6.10;99.90;;;;;;4992767;28;20414;-54
2021/12/15 03:45:17;;;;;;;47.92;25.45;;;6.10;99.90;;;;;;4993226;28;20019;-46
2021/12/15 03:47:46;;;;;;;52.33;25.38;;;6.10;99.90;;;;;;4993685;28;20050;-48
2021/12/15 03:50:15;;;;;;;65.82;24.77;;;6.10;99.90;;;;;;4993061;28;20478;-47
2021/12/15 03:52:41;;;;;;;46.25;21.98;;;6.10;99.90;;;;;;4992962;28;20113;-48
2021/12/15 03:55:08;;;;;;;46.38;24.17;;;6.10;99.90;;;;;;4992413;28;20027;-47
2021/12/15 03:57:35;;;;;;;45.30;23.73;;;6.10;99.90;;;;;;4992147;28;20106;-49
2021/12/15 04:00:02;;;;;;;41.42;22.58;;;6.10;99.90;;;;;;4991649;28;20023;-50
2021/12/15 04:02:28;;;;;;;49.22;25.42;;;6.00;99.90;;;;;;4991665;28;20125;-53
2021/12/15 04:04:54;;;;;;;54.10;24.75;;;6.10;99.90;;;;;;4992163;28;20498;-51
2021/12/15 04:07:23;;;;;;;46.38;24.13;;;6.00;99.90;;;;;;4992026;28;20054;-49
2021/12/15 04:09:50;;;;;;;48.53;25.30;;;5.90;99.90;;;;;;4991490;28;20069;-49
2021/12/15 04:12:16;;;;;;;43.10;23.67;;;6.00;99.90;;;;;;4991680;28;20030;-48
2021/12/15 04:14:45;;;;;;;52.63;25.63;;;6.00;99.90;;;;;;4992147;28;20161;-50
2021/12/15 04:17:26;;;;;;;48.05;24.73;;;6.00;99.90;;;;;;4991922;28;20023;-52
2021/12/15 04:19:54;;;;;;;52.42;25.23;;;6.00;99.90;;;;;;4992798;28;20394;-52
2021/12/15 04:22:21;;;;;;;54.35;27.50;;;6.00;99.90;;;;;;4995455;28;20033;-51
2021/12/15 04:24:46;;;;;;;53.67;25.42;;;6.00;99.90;;;;;;4994386;28;20042;-52
2021/12/15 04:27:12;;;;;;;57.65;27.30;;;6.00;99.90;;;;;;4995767;28;20114;-49
2021/12/15 04:29:39;;;;;;;49.70;26.15;;;6.10;99.90;;;;;;4995339;28;20521;-51
2021/12/15 04:32:14;;;;;;;50.60;26.02;;;6.10;99.90;;;;;;4995348;28;20023;-46
2021/12/15 04:34:40;;;;;;;50.58;25.30;;;6.20;99.90;;;;;;4995419;28;20042;-51
2021/12/15 04:37:06;;;;;;;46.53;25.83;;;6.20;99.90;;;;;;4995247;28;20026;-55
2021/12/15 04:39:31;;;;;;;45.80;25.90;;;6.10;99.90;;;;;;4995078;28;20030;-50
2021/12/15 04:41:58;;;;;;;63.80;25.02;;;6.10;99.90;;;;;;4995022;28;20129;-51
2021/12/15 04:44:28;;;;;;;48.47;24.50;;;6.10;99.90;;;;;;4995419;28;20022;-49
2021/12/15 04:47:04;;;;;;;49.35;24.13;;;6.10;99.90;;;;;;4995307;28;20026;-49
2021/12/15 04:49:33;;;;;;;55.13;24.83;;;6.10;99.90;;;;;;4994938;28;20031;-48
2021/12/15 04:51:59;;;;;;;59.42;24.63;;;6.10;99.90;;;;;;4994867;28;20042;-54
2021/12/15 04:54:25;;;;;;;50.03;26.85;;;6.00;99.90;;;;;;4995077;28;20023;-52
2021/12/15 04:56:51;;;;;;;44.10;25.33;;;6.00;99.90;;;;;;4995130;28;20023;-49
2021/12/15 04:59:17;;;;;;;42.30;23.60;;;6.10;99.90;;;;;;4994654;28;20106;-52
2021/12/15 05:01:45;;;;;;;40.83;24.00;;;6.00;99.90;;;;;;4994487;28;20449;-49
2021/12/15 05:04:11;;;;;;;45.25;25.05;;;6.00;99.90;;;;;;4995349;28;20030;-48
2021/12/15 05:06:37;;;;;;;54.85;26.52;;;6.00;99.90;;;;;;4994855;28;20027;-51
2021/12/15 05:09:04;;;;;;;64.60;27.50;;;6.00;99.90;;;;;;4994706;28;20073;-46
2021/12/15 05:11:30;;;;;;;70.15;25.60;;;5.90;99.90;;;;;;4994778;28;20058;-46
2021/12/15 05:13:56;;;;;;;64.18;24.33;;;5.90;99.90;;;;;;4995096;28;20030;-51
2021/12/15 05:16:21;;;;;;;56.13;25.33;;;5.90;99.90;;;;;;4994569;28;20026;-49
2021/12/15 05:18:49;;;;;;;56.80;25.83;;;5.90;99.90;;;;;;4994556;28;20394;-46
2021/12/15 05:21:15;;;;;;;59.45;25.10;;;5.90;99.90;;;;;;4994457;28;20046;-46
2021/12/15 05:23:45;;;;;;;61.10;26.23;;;5.80;99.90;;;;;;4994491;28;20018;-47
2021/12/15 05:26:12;;;;;;;58.70;25.35;;;5.80;99.90;;;;;;4994641;28;20035;-47
2021/12/15 05:28:37;;;;;;;54.70;25.90;;;5.90;99.90;;;;;;4994721;28;20387;-52
2021/12/15 05:31:03;;;;;;;48.17;25.95;;;5.90;99.90;;;;;;4993830;28;20029;-52
2021/12/15 05:33:29;;;;;;;51.03;24.67;;;5.80;99.90;;;;;;4994244;28;20026;-54
2021/12/15 05:35:56;;;;;;;53.22;25.58;;;5.90;99.90;;;;;;4994223;28;20022;-47
2021/12/15 05:38:23;;;;;;;70.03;25.50;;;6.00;99.90;;;;;;4994628;28;20081;-50
2021/12/15 05:40:50;;;;;;;57.10;25.67;;;6.00;99.90;;;;;;4994383;28;20065;-51
2021/12/15 05:43:16;;;;;;;44.88;24.42;;;6.10;99.90;;;;;;4993853;28;20042;-52
2021/12/15 05:45:42;;;;;;;62.92;24.55;;;6.10;99.90;;;;;;4994091;28;20041;-52
2021/12/15 05:48:12;;;;;;;69.47;26.75;;;6.10;99.90;;;;;;4992918;28;20513;-48
2021/12/15 05:50:39;;;;;;;56.90;24.05;;;6.10;99.90;;;;;;4993694;28;20097;-47
2021/12/15 05:53:06;;;;;;;45.22;24.05;;;6.10;99.90;;;;;;4993864;28;20407;-49
2021/12/15 05:55:33;;;;;;;46.75;25.77;;;6.20;99.90;;;;;;4993907;28;20030;-47
2021/12/15 05:57:59;;;;;;;50.13;25.25;;;6.20;99.90;;;;;;4995213;28;20116;-48
2021/12/15 06:00:31;;;;;;;57.40;24.33;;;6.20;99.90;;;;;;4993906;28;20023;-49
2021/12/15 06:02:57;;;;;;;50.72;25.33;;;6.20;99.90;;;;;;4993592;28;20505;-54
2021/12/15 06:05:24;;;;;;;67.40;28.20;;;6.20;99.90;;;;;;4993819;28;20072;-50
2021/12/15 06:07:50;;;;;;;70.05;26.35;;;6.20;99.90;;;;;;4993521;28;20037;-43
2021/12/15 06:10:21;;;;;;;72.75;25.63;;;6.00;99.90;;;;;;4993283;28;20050;-46
2021/12/15 06:12:48;;;;;;;68.38;27.67;;;6.10;99.90;;;;;;4993506;28;20026;-47
2021/12/15 06:15:20;;;;;;;68.35;26.38;;;6.20;99.90;;;;;;4993551;28;20105;-47
2021/12/15 06:17:47;;;;;;;64.72;27.42;;;6.20;99.90;;;;;;4993433;28;20486;-46
2021/12/15 06:20:13;;;;;;;47.13;24.58;;;6.20;99.90;;;;;;4993163;28;20029;-46
2021/12/15 06:22:40;;;;;;;62.60;26.45;;;6.10;99.90;;;;;;4993265;28;20022;-49
2021/12/15 06:25:06;;;;;;;53.38;26.33;;;6.10;99.90;;;;;;4994254;28;20030;-51
2021/12/15 06:27:35;;;;;;;56.38;25.77;;;6.10;99.90;;;;;;4993397;28;20513;-50
2021/12/15 06:30:02;;;;;;;59.13;26.92;;;6.10;99.90;;;;;;4993020;28;20029;-50
2021/12/15 06:32:28;;;;;;;70.93;27.75;;;6.20;99.90;;;;;;4993661;28;20041;-53
2021/12/15 06:34:54;;;;;;;53.78;23.90;;;6.20;99.90;;;;;;4993173;28;20101;-48
2021/12/15 06:37:19;;;;;;;63.60;26.42;;;6.00;99.90;;;;;;4993148;28;20029;-47
2021/12/15 06:39:45;;;;;;;48.10;25.38;;;6.00;99.90;;;;;;4992865;28;20018;-50
2021/12/15 06:42:10;;;;;;;81.70;26.05;;;6.00;99.90;;;;;;4992336;28;20173;-49
2021/12/15 06:44:36;;;;;;;53.45;26.45;;;5.90;99.90;;;;;;4993020;28;20037;-54
2021/12/15 07:00:28;;;;;;;51.58;25.52;;;6.00;99.90;;;;;;4992521;28;20053;-50
2021/12/15 07:02:55;;;;;;;47.40;24.38;;;6.00;99.90;;;;;;4992214;28;20478;-49
2021/12/15 07:05:22;;;;;;;43.95;24.27;;;6.00;99.90;;;;;;4992835;28;20030;-47
2021/12/15 07:07:49;;;;;;;42.45;24.35;;;6.00;99.90;;;;;;4991275;28;20488;-50
2021/12/15 07:10:17;;;;;;;43.55;24.73;;;6.20;99.90;;;;;;4992391;28;20088;-47
2021/12/15 07:12:43;;;;;;;45.92;25.30;;;6.20;99.90;;;;;;4992544;28;20026;-48
2021/12/15 07:15:10;;;;;;;44.35;24.15;;;6.30;99.90;;;;;;4992442;28;20504;-46
2021/12/15 07:17:39;;;;;;;43.08;23.73;;;6.20;99.90;;;;;;4992401;28;20019;-53
2021/12/15 07:20:07;;;;;;;40.60;22.98;;;6.30;99.90;;;;;;4992049;28;20029;-50
2021/12/15 07:22:43;;;;;;;41.13;24.33;;;6.30;99.90;;;;;;4992121;28;20501;-49
2021/12/15 07:25:12;;;;;;;41.63;23.45;;;6.30;99.90;;;;;;4992343;28;20038;-47
2021/12/15 07:27:38;;;;;;;44.72;23.02;;;6.30;99.90;;;;;;4992182;28;20065;-49
2021/12/15 07:30:05;;;;;;;44.13;24.35;;;6.30;99.90;;;;;;4991826;28;20454;-47
2021/12/15 07:32:31;;;;;;;44.95;24.65;;;6.30;99.90;;;;;;4991984;28;20105;-52
2021/12/15 07:34:57;;;;;;;48.00;25.58;;;6.30;99.90;;;;;;4992008;28;20057;-54
2021/12/15 07:37:22;;;;;;;46.63;26.38;;;6.50;99.90;;;;;;4992171;28;20406;-46
2021/12/15 07:39:57;;;;;;;45.55;24.33;;;6.50;99.90;;;;;;4991884;28;20018;-46
2021/12/15 07:42:32;;;;;;;40.37;24.43;;;6.60;99.90;;;;;;4991848;28;20062;-47
2021/12/15 07:44:57;;;;;;;42.30;22.35;;;6.50;99.90;;;;;;4992146;28;20289;-55
2021/12/15 07:47:23;;;;;;;40.95;24.40;;;6.50;99.90;;;;;;4998224;28;20034;-49
2021/12/15 07:49:48;;;;;;;40.40;23.17;;;6.40;99.90;;;;;;4991811;28;20030;-47
2021/12/15 07:52:14;;;;;;;39.53;22.80;;;6.50;99.90;;;;;;4991083;28;20038;-47
2021/12/15 07:54:39;;;;;;;38.53;22.52;;;6.40;99.90;;;;;;4992997;28;20030;-49
2021/12/15 07:57:11;;;;;;;36.03;23.20;;;6.40;99.90;;;;;;4996116;28;20470;-51
2021/12/15 07:59:36;;;;;;;38.28;22.33;;;6.40;99.90;;;;;;4995933;28;20129;-51
2021/12/15 08:02:03;;;;;;;34.10;22.08;;;6.40;99.90;;;;;;4995263;28;20081;-51
2021/12/15 08:04:29;;;;;;;37.40;22.35;;;6.40;99.90;;;;;;4995915;28;20026;-47
2021/12/15 08:06:54;;;;;;;41.55;22.55;;;6.50;99.90;;;;;;4995916;28;20038;-51
2021/12/15 08:09:22;;;;;;;40.47;23.15;;;6.40;99.90;;;;;;4995767;28;20026;-48
2021/12/15 08:11:48;;;;;;;37.05;22.13;;;6.40;99.90;;;;;;4995758;28;20526;-47
2021/12/15 08:14:15;;;;;;;38.75;22.20;;;6.50;99.90;;;;;;4995736;28;20394;-50
2021/12/15 08:16:40;;;;;;;33.08;22.83;;;6.50;99.90;;;;;;4995749;28;20029;-48
2021/12/15 08:19:07;;;;;;;35.13;21.17;;;6.50;99.90;;;;;;4995435;28;20019;-59
2021/12/15 08:21:32;;;;;;;33.92;20.23;;;6.50;99.90;;;;;;4994888;28;20045;-45
2021/12/15 08:23:58;;;;;;;37.42;21.88;;;6.50;99.90;;;;;;5002942;28;20042;-51
2021/12/15 08:26:24;;;;;;;32.50;21.63;;;6.50;99.90;;;;;;4999874;28;20023;-55
2021/12/15 08:28:51;;;;;;;33.45;20.70;;;6.50;99.90;;;;;;4999235;28;20118;-52
2021/12/15 08:31:17;;;;;;;34.97;22.63;;;6.50;99.90;;;;;;4993250;28;20026;-51
2021/12/15 08:33:43;;;;;;;36.22;21.95;;;6.60;99.90;;;;;;4979505;28;20141;-42
2021/12/15 08:36:11;;;;;;;41.92;23.55;;;6.50;99.90;;;;;;4995027;28;20025;-44
2021/12/15 08:38:39;;;;;;;36.72;20.77;;;6.50;99.90;;;;;;4995296;28;20394;-48
2021/12/15 08:41:09;;;;;;;37.42;22.75;;;6.50;99.90;;;;;;4977677;28;20027;-43
2021/12/15 08:43:35;;;;;;;34.00;20.92;;;6.50;99.90;;;;;;4995295;28;20038;-47
2021/12/15 08:46:11;;;;;;;32.33;21.63;;;6.50;99.90;;;;;;4995416;28;20054;-45
2021/12/15 08:48:38;;;;;;;35.00;20.75;;;6.60;99.90;;;;;;4993850;28;20517;-46
2021/12/15 08:51:06;;;;;;;33.35;21.98;;;6.60;99.90;;;;;;4993908;28;20042;-46
2021/12/15 08:53:32;;;;;;;34.80;21.58;;;6.60;99.90;;;;;;4994475;28;20027;-49
2021/12/15 08:55:58;;;;;;;31.65;20.30;;;6.60;99.90;;;;;;4979644;28;20114;-44
2021/12/15 08:58:24;;;;;;;36.95;23.42;;;6.70;99.90;;;;;;4978501;28;20089;-44
2021/12/15 09:00:53;;;;;;;33.75;21.38;;;6.70;99.90;;;;;;4984181;28;20030;-46
2021/12/15 09:03:20;;;;;;;33.80;19.60;;;6.70;99.90;;;;;;4989846;28;20453;-47
2021/12/15 09:05:49;;;;;;;33.83;19.77;;;6.70;99.90;;;;;;4995042;28;20026;-47
2021/12/15 09:08:14;;;;;;;31.52;19.65;;;6.80;99.90;;;;;;4994806;28;20109;-46
2021/12/15 09:10:44;;;;;;;32.35;20.65;;;6.80;99.90;;;;;;4994467;28;20514;-47
2021/12/15 09:13:11;;;;;;;31.20;20.42;;;6.80;99.90;;;;;;4994781;28;20509;-46
2021/12/15 09:15:37;;;;;;;37.42;21.60;;;6.90;99.90;;;;;;4995024;28;20034;-45
2021/12/15 09:18:03;;;;;;;35.30;21.58;;;6.80;99.90;;;;;;4995013;28;20022;-44
2021/12/15 09:20:32;;;;;;;37.30;22.80;;;6.90;99.90;;;;;;4994146;28;20026;-45
2021/12/15 09:23:06;;;;;;;41.90;24.10;;;6.90;99.90;;;;;;4994715;28;20474;-45
2021/12/15 09:25:32;;;;;;;39.22;23.40;;;6.90;99.90;;;;;;4994695;28;20037;-45
2021/12/15 09:27:58;;;;;;;42.58;24.92;;;7.00;99.90;;;;;;4994845;28;20034;-45
2021/12/15 09:30:27;;;;;;;41.72;24.60;;;7.00;99.90;;;;;;4994476;28;20398;-47
2021/12/15 09:32:53;;;;;;;40.17;22.73;;;6.90;99.90;;;;;;4994785;28;20022;-48
2021/12/15 09:35:20;;;;;;;40.08;23.50;;;7.00;99.90;;;;;;4994426;28;20022;-47
2021/12/15 09:37:47;;;;;;;35.13;22.02;;;7.10;99.90;;;;;;4994409;28;20394;-47
2021/12/15 09:40:14;;;;;;;30.25;20.40;;;7.20;99.90;;;;;;4993980;28;20015;-47
2021/12/15 09:42:40;;;;;;;30.70;19.75;;;7.30;99.90;;;;;;4994359;28;20452;-45
2021/12/15 09:45:25;;;;;;;32.58;21.05;;;7.40;99.90;;;;;;4994273;28;20109;-45
2021/12/15 10:04:23;;;;;;;27.83;18.77;;;7.80;99.90;;;;;;4994091;28;20108;-44
2021/12/15 10:12:19;;;;;;;30.08;19.10;;;8.10;99.90;;;;;;4993791;28;20411;-47
2021/12/15 10:17:54;;;;;;;26.88;18.90;;;8.10;99.90;;;;;;4993067;28;20045;-45
2021/12/15 10:20:23;;;;;;;28.73;17.40;;;8.00;99.90;;;;;;4991460;28;20027;-45
2021/12/15 10:22:56;;;;;;;25.27;18.60;;;7.90;99.90;;;;;;4993583;28;20018;-47
2021/12/15 10:25:33;;;;;;;27.00;18.67;;;8.00;99.90;;;;;;4993621;28;20018;-49
2021/12/15 10:28:04;;;;;;;28.80;18.77;;;7.90;99.90;;;;;;4993049;28;20061;-45
2021/12/15 10:30:47;;;;;;;28.55;18.75;;;7.90;99.90;;;;;;4988670;28;20030;-46
2021/12/15 10:33:15;;;;;;;27.63;19.35;;;7.90;99.90;;;;;;4992076;28;20034;-44
2021/12/15 10:35:48;;;;;;;27.15;18.55;;;8.00;99.90;;;;;;4993143;28;20167;-47
2021/12/15 10:38:27;;;;;;;25.33;17.85;;;8.00;99.90;;;;;;4992765;28;20022;-47
2021/12/15 10:41:19;;;;;;;27.80;17.65;;;8.00;99.90;;;;;;4991288;28;20057;-48
2021/12/15 10:43:57;;;;;;;30.15;17.08;;;8.00;99.90;;;;;;4973453;28;20038;-50
2021/12/15 10:46:28;;;;;;;24.70;17.33;;;8.20;99.90;;;;;;4973550;28;20030;-48
2021/12/15 10:49:04;;;;;;;25.35;17.27;;;8.30;99.90;;;;;;4973552;28;20150;-45
2021/12/15 10:51:49;;;;;;;27.02;18.17;;;8.30;99.90;;;;;;4973280;28;20031;-47
2021/12/15 10:54:23;;;;;;;28.08;19.48;;;8.20;99.90;;;;;;4973584;28;20027;-48
2021/12/15 10:57:10;;;;;;;26.10;17.05;;;8.30;99.90;;;;;;4973574;28;20058;-47
2021/12/15 10:59:43;;;;;;;27.95;18.30;;;8.30;99.90;;;;;;4995162;28;20018;-43
2021/12/15 11:02:16;;;;;;;24.52;17.70;;;8.30;99.90;;;;;;4992758;28;20034;-47
2021/12/15 11:04:51;;;;;;;26.88;18.98;;;8.40;99.90;;;;;;4992518;28;20026;-46
2021/12/15 11:07:22;;;;;;;24.33;17.60;;;8.50;99.90;;;;;;4993096;28;20076;-46
2021/12/15 11:10:06;;;;;;;25.17;18.27;;;8.50;99.90;;;;;;4992022;28;20037;-46
2021/12/15 11:12:40;;;;;;;23.08;17.50;;;8.40;99.90;;;;;;4985642;28;20026;-50
2021/12/15 11:15:08;;;;;;;21.77;16.02;;;8.50;99.90;;;;;;4992067;28;20141;-51
2021/12/15 11:17:37;;;;;;;21.05;15.63;;;8.50;99.90;;;;;;4987593;28;20109;-58
2021/12/15 11:20:06;;;;;;;21.02;15.07;;;8.70;99.90;;;;;;4972907;28;20491;-54
2021/12/15 11:22:43;;;;;;;18.88;14.32;;;8.80;99.90;;;;;;4985218;28;20220;-49
2021/12/15 11:25:19;;;;;;;21.00;15.05;;;8.80;99.90;;;;;;4988727;28;20404;-48
2021/12/15 11:27:54;;;;;;;20.30;14.88;;;8.80;99.90;;;;;;4980742;28;20029;-56
2021/12/15 11:30:30;;;;;;;18.70;14.18;;;8.80;99.90;;;;;;4994905;28;20398;-55
2021/12/15 11:32:59;;;;;;;19.40;14.15;;;8.80;99.90;;;;;;4976776;28;20033;-50
2021/12/15 11:35:51;;;;;;;18.88;14.43;;;8.80;99.90;;;;;;4974614;28;20439;-58
2021/12/15 11:38:33;;;;;;;18.38;13.90;;;8.80;99.90;;;;;;4978551;28;20034;-49
2021/12/15 11:40:58;;;;;;;18.88;14.57;;;8.70;99.90;;;;;;4977925;28;20073;-48
2021/12/15 11:43:47;;;;;;;21.25;15.15;;;8.80;99.90;;;;;;4991788;28;20034;-53
2021/12/15 11:46:18;;;;;;;23.70;15.32;;;8.80;99.90;;;;;;4991721;28;20319;-52
2021/12/15 11:48:47;;;;;;;20.60;15.02;;;8.70;99.90;;;;;;4991383;28;20039;-52
2021/12/15 11:51:13;;;;;;;20.45;15.23;;;8.70;99.90;;;;;;4991064;28;20030;-49
2021/12/15 11:53:44;;;;;;;27.83;13.80;;;8.70;99.90;;;;;;4990841;28;20092;-54
2021/12/15 11:56:12;;;;;;;21.13;14.98;;;8.80;99.90;;;;;;4980051;28;20065;-54
2021/12/15 11:58:38;;;;;;;16.75;13.40;;;8.90;99.90;;;;;;4972979;28;20039;-59
2021/12/15 12:01:04;;;;;;;16.95;13.27;;;9.00;99.90;;;;;;4975843;28;20173;-52
2021/12/15 12:03:29;;;;;;;14.95;12.65;;;9.00;99.90;;;;;;4991227;28;20041;-53
2021/12/15 12:05:56;;;;;;;18.77;13.93;;;9.10;99.90;;;;;;4991288;28;20031;-57
2021/12/15 12:08:23;;;;;;;17.77;13.43;;;9.20;99.90;;;;;;4976968;28;20033;-57
2021/12/15 12:10:52;;;;;;;18.90;12.70;;;9.30;99.90;;;;;;4969664;28;20386;-51
2021/12/15 12:13:25;;;;;;;16.85;11.52;;;9.30;99.90;;;;;;4971554;28;20030;-47
2021/12/15 12:15:55;;;;;;;15.40;12.38;;;9.30;99.90;;;;;;4971761;28;20027;-49
2021/12/15 12:18:23;;;;;;;17.25;12.52;;;9.30;99.90;;;;;;4984851;28;20025;-60
2021/12/15 12:20:52;;;;;;;18.38;13.30;;;9.30;99.90;;;;;;4990496;28;20042;-62
2021/12/15 12:23:23;;;;;;;16.63;11.77;;;9.10;99.90;;;;;;4989265;28;20026;-47
2021/12/15 12:26:02;;;;;;;18.00;11.63;;;9.20;99.90;;;;;;4975249;28;20027;-52
2021/12/15 12:28:32;;;;;;;20.00;11.18;;;9.10;99.90;;;;;;4977372;28;20019;-52
2021/12/15 12:31:05;;;;;;;14.68;11.18;;;9.20;99.90;;;;;;4990533;28;20037;-51
2021/12/15 12:33:31;;;;;;;18.70;12.23;;;9.10;99.90;;;;;;4991389;28;20030;-65
2021/12/15 12:36:01;;;;;;;14.88;11.55;;;9.10;99.90;;;;;;4991207;28;20030;-62
2021/12/15 12:38:30;;;;;;;17.38;11.32;;;9.20;99.90;;;;;;4990706;28;20018;-55
2021/12/15 12:41:07;;;;;;;15.40;12.60;;;9.30;99.90;;;;;;4974306;28;20125;-48
2021/12/15 12:43:42;;;;;;;16.85;12.60;;;9.30;99.90;;;;;;4973739;28;20474;-47
2021/12/15 12:46:21;;;;;;;;;;;9.30;99.90;;;;;;4983519;28;20023;-46
2021/12/15 13:00:28;;;;;;;15.90;11.63;;;9.20;99.90;;;;;;4975487;28;20034;-48
2021/12/15 13:03:05;;;;;;;17.60;13.15;;;9.10;99.90;;;;;;4975277;28;20026;-46
2021/12/15 13:05:45;;;;;;;16.48;12.63;;;9.10;99.90;;;;;;4975489;28;20027;-48
2021/12/15 13:08:34;;;;;;;19.92;14.20;;;9.20;99.90;;;;;;4975722;28;20019;-51
2021/12/15 13:11:10;;;;;;;17.08;13.27;;;9.10;99.90;;;;;;4975075;28;20030;-45
2021/12/15 13:14:01;;;;;;;86.30;52.85;;;9.10;99.90;;;;;;4974053;28;20106;-49
2021/12/15 13:16:42;;;;;;;65.28;44.15;;;9.20;99.90;;;;;;4975290;28;20138;-47
2021/12/15 13:19:10;;;;;;;18.50;14.07;;;9.20;99.90;;;;;;4975493;28;20019;-53
2021/12/15 13:30:46;;;;;;;21.00;14.93;;;9.30;99.90;;;;;;4974861;28;20045;-48
2021/12/15 13:33:18;;;;;;;25.88;14.70;;;9.30;99.90;;;;;;4974788;28;20498;-47
2021/12/15 13:35:47;;;;;;;20.58;13.60;;;9.30;99.90;;;;;;4974980;28;20023;-49
2021/12/15 13:38:18;;;;;;;18.42;14.15;;;9.40;99.90;;;;;;4974967;28;20019;-45
2021/12/15 13:41:10;;;;;;;19.23;15.23;;;9.30;99.90;;;;;;4974499;28;20034;-51
2021/12/15 13:43:52;;;;;;;19.75;14.82;;;9.50;99.90;;;;;;4974880;28;20030;-49
2021/12/15 13:46:36;;;;;;;28.70;15.82;;;9.40;99.90;;;;;;4974826;28;20027;-51
2021/12/15 13:49:23;;;;;;;19.70;14.45;;;9.30;99.90;;;;;;4990033;28;20027;-44
2021/12/15 13:51:58;;;;;;;20.45;14.52;;;9.30;99.90;;;;;;4975164;28;20106;-47
2021/12/15 13:54:33;;;;;;;20.63;15.55;;;9.30;99.90;;;;;;4976017;28;20027;-48
2021/12/15 13:57:00;;;;;;;20.50;14.77;;;9.20;99.90;;;;;;4974616;28;20077;-49
2021/12/15 13:59:37;;;;;;;22.58;14.27;;;9.30;99.90;;;;;;4974302;28;20245;-49
2021/12/15 14:02:18;;;;;;;27.73;14.48;;;9.20;99.90;;;;;;4975179;28;20042;-45
2021/12/15 14:04:51;;;;;;;22.90;13.13;;;9.10;99.90;;;;;;4975075;28;20055;-46
2021/12/15 14:07:46;;;;;;;17.88;13.57;;;9.10;99.90;;;;;;4975396;28;20057;-49
2021/12/15 14:10:17;;;;;;;21.88;14.38;;;9.20;99.90;;;;;;4973255;28;20034;-44
2021/12/15 14:12:46;;;;;;;20.98;13.55;;;9.10;99.90;;;;;;4974136;28;20402;-45
2021/12/15 14:15:35;;;;;;;17.00;12.90;;;9.30;99.90;;;;;;4974191;28;20018;-43
2021/12/15 14:18:06;;;;;;;16.65;13.00;;;9.20;99.90;;;;;;4973674;28;20027;-45